createdAt,value
2018-09-22T00:00:34.162Z,0
2018-09-22T00:01:34.735Z,0
2018-09-22T00:02:35.305Z,0
2018-09-22T00:03:35.880Z,0
2018-09-22T00:04:36.449Z,0
2018-09-22T00:05:37.020Z,0
2018-09-22T00:06:37.594Z,0
2018-09-22T00:07:38.166Z,0
2018-09-22T00:08:38.738Z,0
2018-09-22T00:09:39.310Z,0
2018-09-22T00:10:39.880Z,0
2018-09-22T00:11:40.452Z,0
2018-09-22T00:12:41.024Z,0
2018-09-22T00:13:41.600Z,0
2018-09-22T00:14:42.169Z,0
2018-09-22T00:15:42.741Z,0
2018-09-22T00:16:43.311Z,0
2018-09-22T00:17:43.884Z,0
2018-09-22T00:18:44.456Z,0
2018-09-22T00:19:45.028Z,0
2018-09-22T00:20:45.600Z,0
2018-09-22T00:21:46.234Z,0
2018-09-22T00:22:46.742Z,0
2018-09-22T00:23:47.329Z,0
2018-09-22T00:24:47.898Z,0
2018-09-22T00:25:48.484Z,0
2018-09-22T00:26:49.056Z,0
2018-09-22T00:27:49.628Z,0
2018-09-22T00:28:50.201Z,0
2018-09-22T00:29:50.774Z,0
2018-09-22T00:30:51.347Z,0
2018-09-22T00:31:51.918Z,0
2018-09-22T00:32:52.489Z,0
2018-09-22T00:33:53.062Z,0
2018-09-22T00:34:53.649Z,0
2018-09-22T00:35:54.224Z,0
2018-09-22T00:36:54.796Z,0
2018-09-22T00:37:55.369Z,0
2018-09-22T00:38:55.944Z,0
2018-09-22T00:39:56.528Z,0
2018-09-22T00:40:57.100Z,0
2018-09-22T00:41:57.674Z,0
2018-09-22T00:42:58.248Z,0
2018-09-22T00:43:58.820Z,0
2018-09-22T00:44:59.393Z,0
2018-09-22T00:45:59.965Z,0
2018-09-22T00:47:00.539Z,0
2018-09-22T00:48:01.110Z,0
2018-09-22T00:49:01.684Z,0
2018-09-22T00:50:02.269Z,0
2018-09-22T00:51:02.842Z,0
2018-09-22T00:52:03.414Z,0
2018-09-22T00:53:03.988Z,0
2018-09-22T00:54:04.559Z,0
2018-09-22T00:55:05.134Z,0
2018-09-22T00:56:05.720Z,0
2018-09-22T00:57:06.305Z,0
2018-09-22T00:58:06.878Z,0
2018-09-22T00:59:07.451Z,0
2018-09-22T01:00:08.023Z,0
2018-09-22T01:01:08.594Z,0
2018-09-22T01:02:09.178Z,0
2018-09-22T01:03:09.751Z,0
2018-09-22T01:04:10.325Z,0
2018-09-22T01:05:10.896Z,0
2018-09-22T01:06:11.467Z,0
2018-09-22T01:07:12.040Z,0
2018-09-22T01:08:12.611Z,0
2018-09-22T01:09:13.183Z,0
2018-09-22T01:10:13.756Z,0
2018-09-22T01:11:14.328Z,0
2018-09-22T01:12:14.899Z,0
2018-09-22T01:13:15.485Z,0
2018-09-22T01:14:16.061Z,0
2018-09-22T01:15:16.629Z,0
2018-09-22T01:16:17.201Z,0
2018-09-22T01:17:17.773Z,0
2018-09-22T01:18:18.350Z,0
2018-09-22T01:19:18.918Z,0
2018-09-22T01:20:19.491Z,0
2018-09-22T01:21:20.063Z,0
2018-09-22T01:22:20.634Z,0
2018-09-22T01:23:21.207Z,0
2018-09-22T01:24:21.780Z,0
2018-09-22T01:25:22.353Z,0
2018-09-22T01:26:22.924Z,0
2018-09-22T01:27:23.495Z,0
2018-09-22T01:28:24.065Z,0
2018-09-22T01:29:24.636Z,0
2018-09-22T01:30:25.209Z,0
2018-09-22T01:31:25.781Z,0
2018-09-22T01:32:26.353Z,0
2018-09-22T01:33:26.925Z,0
2018-09-22T01:34:27.496Z,0
2018-09-22T01:35:28.074Z,0
2018-09-22T01:36:28.655Z,0
2018-09-22T01:37:29.227Z,0
2018-09-22T01:38:29.799Z,0
2018-09-22T01:39:30.370Z,0
2018-09-22T01:40:30.942Z,0
2018-09-22T01:41:31.512Z,0
2018-09-22T01:42:32.083Z,0
2018-09-22T01:43:32.655Z,0
2018-09-22T01:44:33.227Z,0
2018-09-22T01:45:33.802Z,0
2018-09-22T01:46:34.371Z,0
2018-09-22T01:47:34.945Z,0
2018-09-22T01:48:35.515Z,0
2018-09-22T01:49:36.088Z,0
2018-09-22T01:50:36.667Z,0
2018-09-22T01:51:37.245Z,0
2018-09-22T01:52:37.809Z,0
2018-09-22T01:53:38.391Z,0
2018-09-22T01:54:38.962Z,0
2018-09-22T01:55:39.534Z,0
2018-09-22T01:56:40.109Z,0
2018-09-22T01:57:40.678Z,0
2018-09-22T01:58:41.253Z,0
2018-09-22T01:59:41.821Z,0
2018-09-22T02:00:42.407Z,0
2018-09-22T02:01:42.990Z,0
2018-09-22T02:02:43.564Z,0
2018-09-22T02:03:44.134Z,0
2018-09-22T02:04:44.714Z,0
2018-09-22T02:05:45.294Z,0
2018-09-22T02:06:45.867Z,0
2018-09-22T02:07:46.451Z,0
2018-09-22T02:08:47.022Z,0
2018-09-22T02:09:47.593Z,0
2018-09-22T02:10:48.165Z,0
2018-09-22T02:11:48.748Z,0
2018-09-22T02:12:49.328Z,0
2018-09-22T02:13:49.900Z,0
2018-09-22T02:14:50.473Z,0
2018-09-22T02:15:51.060Z,0
2018-09-22T02:16:51.632Z,0
2018-09-22T02:17:52.203Z,0
2018-09-22T02:18:52.775Z,0
2018-09-22T02:19:53.360Z,0
2018-09-22T02:20:53.932Z,0
2018-09-22T02:21:54.517Z,0
2018-09-22T02:22:55.090Z,0
2018-09-22T02:23:55.662Z,0
2018-09-22T02:24:56.237Z,0
2018-09-22T02:25:56.809Z,0
2018-09-22T02:26:57.382Z,0
2018-09-22T02:27:57.956Z,0
2018-09-22T02:28:58.529Z,0
2018-09-22T02:29:59.102Z,0
2018-09-22T02:30:59.674Z,0
2018-09-22T02:32:00.248Z,0
2018-09-22T02:33:00.836Z,0
2018-09-22T02:34:01.409Z,0
2018-09-22T02:35:01.994Z,0
2018-09-22T02:36:02.566Z,0
2018-09-22T02:37:03.138Z,0
2018-09-22T02:38:03.710Z,0
2018-09-22T02:39:04.281Z,0
2018-09-22T02:40:04.853Z,0
2018-09-22T02:41:05.426Z,0
2018-09-22T02:42:06.000Z,0
2018-09-22T02:43:06.573Z,0
2018-09-22T02:44:07.145Z,0
2018-09-22T02:45:07.717Z,0
2018-09-22T02:46:08.289Z,0
2018-09-22T02:47:08.863Z,0
2018-09-22T02:48:09.435Z,0
2018-09-22T02:49:10.008Z,0
2018-09-22T02:50:10.577Z,0
2018-09-22T02:51:11.150Z,0
2018-09-22T02:52:11.724Z,0
2018-09-22T02:53:12.309Z,0
2018-09-22T02:54:12.881Z,0
2018-09-22T02:55:13.456Z,0
2018-09-22T02:56:14.028Z,0
2018-09-22T02:57:14.601Z,0
2018-09-22T02:58:15.173Z,0
2018-09-22T02:59:15.745Z,0
2018-09-22T03:00:16.318Z,0
2018-09-22T03:01:16.904Z,0
2018-09-22T03:02:17.491Z,0
2018-09-22T03:03:18.063Z,0
2018-09-22T03:04:18.636Z,0
2018-09-22T03:05:19.207Z,0
2018-09-22T03:06:19.780Z,0
2018-09-22T03:07:20.355Z,0
2018-09-22T03:08:20.940Z,0
2018-09-22T03:09:21.516Z,0
2018-09-22T03:10:22.100Z,0
2018-09-22T03:11:22.692Z,0
2018-09-22T03:12:23.261Z,0
2018-09-22T03:13:23.832Z,0
2018-09-22T03:14:24.416Z,0
2018-09-22T03:15:25.050Z,0
2018-09-22T03:16:25.562Z,0
2018-09-22T03:17:26.135Z,0
2018-09-22T03:18:26.707Z,0
2018-09-22T03:19:27.281Z,0
2018-09-22T03:20:27.866Z,0
2018-09-22T03:21:28.440Z,0
2018-09-22T03:22:29.012Z,0
2018-09-22T03:23:29.598Z,0
2018-09-22T03:24:30.232Z,0
2018-09-22T03:25:30.760Z,0
2018-09-22T03:26:31.329Z,0
2018-09-22T03:27:31.907Z,0
2018-09-22T03:28:32.477Z,0
2018-09-22T03:29:33.048Z,0
2018-09-22T03:30:33.636Z,0
2018-09-22T03:31:34.223Z,0
2018-09-22T03:32:34.797Z,0
2018-09-22T03:33:35.383Z,0
2018-09-22T03:34:35.957Z,0
2018-09-22T03:35:36.530Z,0
2018-09-22T03:36:37.099Z,0
2018-09-22T03:37:37.674Z,0
2018-09-22T03:38:38.247Z,0
2018-09-22T03:39:38.818Z,0
2018-09-22T03:40:39.389Z,0
2018-09-22T03:41:39.963Z,0
2018-09-22T03:42:40.536Z,0
2018-09-22T03:43:41.109Z,0
2018-09-22T03:44:41.682Z,0
2018-09-22T03:45:42.266Z,0
2018-09-22T03:46:42.838Z,0
2018-09-22T03:47:43.414Z,0
2018-09-22T03:48:43.985Z,0
2018-09-22T03:49:44.558Z,0
2018-09-22T03:50:45.130Z,0
2018-09-22T03:51:45.703Z,0
2018-09-22T03:52:46.276Z,0
2018-09-22T03:53:46.849Z,0
2018-09-22T03:54:47.422Z,0
2018-09-22T03:55:47.993Z,0
2018-09-22T03:56:48.566Z,0
2018-09-22T03:57:49.140Z,0
2018-09-22T03:58:49.712Z,0
2018-09-22T03:59:50.286Z,0
2018-09-22T04:00:50.857Z,0
2018-09-22T04:01:51.431Z,0
2018-09-22T04:02:52.006Z,0
2018-09-22T04:03:52.589Z,0
2018-09-22T04:04:53.161Z,0
2018-09-22T04:05:53.733Z,0
2018-09-22T04:06:54.304Z,0
2018-09-22T04:07:54.929Z,0
2018-09-22T04:08:55.499Z,0
2018-09-22T04:09:56.071Z,0
2018-09-22T04:10:56.643Z,0
2018-09-22T04:11:57.217Z,0
2018-09-22T04:12:57.791Z,0
2018-09-22T04:13:58.374Z,0
2018-09-22T04:14:58.948Z,0
2018-09-22T04:15:59.520Z,0
2018-09-22T04:17:00.094Z,0
2018-09-22T04:18:00.674Z,0
2018-09-22T04:19:01.248Z,0
2018-09-22T04:20:01.818Z,0
2018-09-22T04:21:02.391Z,0
2018-09-22T04:22:02.964Z,0
2018-09-22T04:23:03.535Z,0
2018-09-22T04:24:04.107Z,0
2018-09-22T04:25:04.693Z,0
2018-09-22T04:26:05.266Z,0
2018-09-22T04:27:05.837Z,0
2018-09-22T04:28:06.411Z,0
2018-09-22T04:29:06.984Z,0
2018-09-22T04:30:07.555Z,0
2018-09-22T04:31:08.126Z,0
2018-09-22T04:32:08.697Z,0
2018-09-22T04:33:09.292Z,0
2018-09-22T04:34:09.886Z,0
2018-09-22T04:35:10.412Z,0
2018-09-22T04:36:10.984Z,0
2018-09-22T04:37:11.555Z,0
2018-09-22T04:38:12.127Z,0
2018-09-22T04:39:12.699Z,0
2018-09-22T04:40:13.272Z,0
2018-09-22T04:41:13.845Z,0
2018-09-22T04:42:14.427Z,0
2018-09-22T04:43:15.001Z,0
2018-09-22T04:44:15.570Z,0
2018-09-22T04:45:16.141Z,0
2018-09-22T04:46:16.712Z,0
2018-09-22T04:47:17.298Z,0
2018-09-22T04:48:17.873Z,0
2018-09-22T04:49:18.456Z,0
2018-09-22T04:50:19.026Z,0
2018-09-22T04:51:19.601Z,0
2018-09-22T04:52:20.171Z,0
2018-09-22T04:53:20.745Z,0
2018-09-22T04:54:21.332Z,0
2018-09-22T04:55:21.902Z,0
2018-09-22T04:56:22.473Z,0
2018-09-22T04:57:23.045Z,0
2018-09-22T04:58:23.618Z,4
2018-09-22T04:59:24.191Z,0
2018-09-22T05:00:24.761Z,0
2018-09-22T05:01:25.332Z,0
2018-09-22T05:02:25.910Z,4
2018-09-22T05:03:26.476Z,0
2018-09-22T05:04:27.049Z,4
2018-09-22T05:05:27.621Z,4
2018-09-22T05:06:28.194Z,0
2018-09-22T05:07:28.766Z,4
2018-09-22T05:08:29.345Z,4
2018-09-22T05:09:29.925Z,4
2018-09-22T05:10:30.498Z,4
2018-09-22T05:11:31.071Z,8
2018-09-22T05:12:31.646Z,4
2018-09-22T05:13:32.216Z,8
2018-09-22T05:14:32.789Z,8
2018-09-22T05:15:33.364Z,12
2018-09-22T05:16:33.936Z,8
2018-09-22T05:17:34.508Z,12
2018-09-22T05:18:35.081Z,12
2018-09-22T05:19:35.655Z,12
2018-09-22T05:20:36.238Z,16
2018-09-22T05:21:36.804Z,16
2018-09-22T05:22:37.391Z,20
2018-09-22T05:23:37.963Z,20
2018-09-22T05:24:38.554Z,24
2018-09-22T05:25:39.138Z,24
2018-09-22T05:26:39.711Z,28
2018-09-22T05:27:40.284Z,28
2018-09-22T05:28:40.858Z,32
2018-09-22T05:29:41.431Z,32
2018-09-22T05:30:42.006Z,36
2018-09-22T05:31:42.581Z,36
2018-09-22T05:32:43.154Z,36
2018-09-22T05:33:43.726Z,36
2018-09-22T05:34:44.302Z,36
2018-09-22T05:35:44.878Z,40
2018-09-22T05:36:45.465Z,44
2018-09-22T05:37:46.039Z,44
2018-09-22T05:38:46.610Z,40
2018-09-22T05:39:47.185Z,44
2018-09-22T05:40:47.772Z,44
2018-09-22T05:41:48.464Z,44
2018-09-22T05:42:48.920Z,44
2018-09-22T05:43:49.493Z,48
2018-09-22T05:44:50.068Z,48
2018-09-22T05:45:50.644Z,48
2018-09-22T05:46:51.231Z,52
2018-09-22T05:47:51.804Z,56
2018-09-22T05:48:52.389Z,56
2018-09-22T05:49:52.962Z,60
2018-09-22T05:50:53.534Z,60
2018-09-22T05:51:54.109Z,64
2018-09-22T05:52:54.682Z,64
2018-09-22T05:53:55.256Z,64
2018-09-22T05:54:55.825Z,64
2018-09-22T05:55:56.398Z,68
2018-09-22T05:56:56.978Z,72
2018-09-22T05:57:57.596Z,72
2018-09-22T05:58:58.118Z,72
2018-09-22T05:59:58.693Z,80
2018-09-22T06:00:59.270Z,80
2018-09-22T06:01:59.852Z,80
2018-09-22T06:03:00.427Z,84
2018-09-22T06:04:01.067Z,84
2018-09-22T06:05:01.571Z,88
2018-09-22T06:06:02.144Z,88
2018-09-22T06:07:02.716Z,92
2018-09-22T06:08:03.290Z,96
2018-09-22T06:09:03.861Z,96
2018-09-22T06:10:04.436Z,100
2018-09-22T06:11:05.012Z,100
2018-09-22T06:12:05.587Z,112
2018-09-22T06:13:06.159Z,116
2018-09-22T06:14:06.735Z,120
2018-09-22T06:15:07.310Z,124
2018-09-22T06:16:07.884Z,128
2018-09-22T06:17:08.458Z,128
2018-09-22T06:18:09.035Z,136
2018-09-22T06:19:09.606Z,140
2018-09-22T06:20:10.180Z,144
2018-09-22T06:21:10.755Z,144
2018-09-22T06:22:11.340Z,152
2018-09-22T06:23:12.010Z,152
2018-09-22T06:24:12.486Z,156
2018-09-22T06:25:13.058Z,160
2018-09-22T06:26:13.631Z,156
2018-09-22T06:27:14.207Z,156
2018-09-22T06:28:14.780Z,156
2018-09-22T06:29:15.354Z,160
2018-09-22T06:30:15.928Z,168
2018-09-22T06:31:16.504Z,172
2018-09-22T06:32:17.076Z,180
2018-09-22T06:33:17.649Z,180
2018-09-22T06:34:18.226Z,180
2018-09-22T06:35:18.801Z,184
2018-09-22T06:36:19.384Z,196
2018-09-22T06:37:19.986Z,200
2018-09-22T06:38:20.534Z,204
2018-09-22T06:39:21.111Z,212
2018-09-22T06:40:21.683Z,216
2018-09-22T06:41:22.259Z,216
2018-09-22T06:42:22.852Z,208
2018-09-22T06:43:23.410Z,204
2018-09-22T06:44:23.984Z,204
2018-09-22T06:45:24.561Z,200
2018-09-22T06:46:25.134Z,196
2018-09-22T06:47:25.707Z,196
2018-09-22T06:48:26.280Z,196
2018-09-22T06:49:26.866Z,204
2018-09-22T06:50:27.443Z,204
2018-09-22T06:51:28.036Z,204
2018-09-22T06:52:28.621Z,208
2018-09-22T06:53:29.196Z,208
2018-09-22T06:54:29.771Z,212
2018-09-22T06:55:30.348Z,216
2018-09-22T06:56:30.924Z,220
2018-09-22T06:57:31.498Z,220
2018-09-22T06:58:32.076Z,224
2018-09-22T06:59:32.651Z,220
2018-09-22T07:00:33.227Z,224
2018-09-22T07:01:33.804Z,228
2018-09-22T07:02:34.382Z,232
2018-09-22T07:03:34.968Z,240
2018-09-22T07:04:35.548Z,248
2018-09-22T07:05:36.125Z,248
2018-09-22T07:06:36.712Z,252
2018-09-22T07:07:37.286Z,256
2018-09-22T07:08:37.893Z,264
2018-09-22T07:09:38.440Z,260
2018-09-22T07:10:39.014Z,264
2018-09-22T07:11:39.591Z,252
2018-09-22T07:12:40.180Z,252
2018-09-22T07:13:40.825Z,256
2018-09-22T07:14:41.355Z,268
2018-09-22T07:15:41.930Z,272
2018-09-22T07:16:42.505Z,284
2018-09-22T07:17:43.078Z,296
2018-09-22T07:18:43.655Z,312
2018-09-22T07:19:44.230Z,320
2018-09-22T07:20:44.805Z,328
2018-09-22T07:21:45.382Z,332
2018-09-22T07:22:45.958Z,332
2018-09-22T07:23:46.534Z,328
2018-09-22T07:24:47.112Z,336
2018-09-22T07:25:47.685Z,336
2018-09-22T07:26:48.261Z,348
2018-09-22T07:27:48.838Z,356
2018-09-22T07:28:49.413Z,356
2018-09-22T07:29:50.004Z,344
2018-09-22T07:30:50.600Z,356
2018-09-22T07:31:51.169Z,336
2018-09-22T07:32:51.746Z,316
2018-09-22T07:33:52.320Z,292
2018-09-22T07:34:52.899Z,292
2018-09-22T07:35:53.486Z,296
2018-09-22T07:36:54.063Z,296
2018-09-22T07:37:54.638Z,296
2018-09-22T07:38:55.217Z,300
2018-09-22T07:39:55.792Z,308
2018-09-22T07:40:56.367Z,316
2018-09-22T07:41:56.943Z,320
2018-09-22T07:42:57.532Z,324
2018-09-22T07:43:58.108Z,360
2018-09-22T07:44:58.684Z,360
2018-09-22T07:45:59.261Z,408
2018-09-22T07:46:59.836Z,432
2018-09-22T07:48:00.412Z,368
2018-09-22T07:49:00.990Z,368
2018-09-22T07:50:01.566Z,380
2018-09-22T07:51:02.143Z,448
2018-09-22T07:52:02.718Z,448
2018-09-22T07:53:03.293Z,452
2018-09-22T07:54:03.883Z,432
2018-09-22T07:55:04.457Z,416
2018-09-22T07:56:05.037Z,424
2018-09-22T07:57:05.634Z,424
2018-09-22T07:58:06.199Z,400
2018-09-22T07:59:06.773Z,384
2018-09-22T08:00:07.349Z,372
2018-09-22T08:01:07.937Z,368
2018-09-22T08:02:08.512Z,324
2018-09-22T08:03:09.088Z,316
2018-09-22T08:04:09.663Z,336
2018-09-22T08:05:10.238Z,348
2018-09-22T08:06:10.814Z,384
2018-09-22T08:07:11.390Z,444
2018-09-22T08:08:11.965Z,484
2018-09-22T08:09:12.543Z,488
2018-09-22T08:10:13.119Z,496
2018-09-22T08:11:13.695Z,436
2018-09-22T08:12:14.271Z,440
2018-09-22T08:13:14.847Z,516
2018-09-22T08:14:15.423Z,516
2018-09-22T08:15:15.999Z,528
2018-09-22T08:16:16.575Z,516
2018-09-22T08:17:17.150Z,484
2018-09-22T08:18:17.726Z,460
2018-09-22T08:19:18.304Z,440
2018-09-22T08:20:18.882Z,460
2018-09-22T08:21:19.460Z,460
2018-09-22T08:22:20.039Z,468
2018-09-22T08:23:20.615Z,476
2018-09-22T08:24:21.191Z,476
2018-09-22T08:25:21.866Z,476
2018-09-22T08:26:22.353Z,468
2018-09-22T08:27:22.933Z,436
2018-09-22T08:28:23.507Z,440
2018-09-22T08:29:24.084Z,436
2018-09-22T08:30:24.659Z,432
2018-09-22T08:31:25.237Z,420
2018-09-22T08:32:25.816Z,424
2018-09-22T08:33:26.393Z,428
2018-09-22T08:34:26.969Z,448
2018-09-22T08:35:27.545Z,440
2018-09-22T08:36:28.341Z,436
2018-09-22T08:37:28.701Z,424
2018-09-22T08:38:29.277Z,416
2018-09-22T08:39:29.856Z,464
2018-09-22T08:40:30.432Z,452
2018-09-22T08:41:31.009Z,476
2018-09-22T08:42:31.587Z,452
2018-09-22T08:43:32.166Z,460
2018-09-22T08:44:32.758Z,460
2018-09-22T08:45:33.332Z,460
2018-09-22T08:46:33.912Z,464
2018-09-22T08:47:34.488Z,468
2018-09-22T08:48:35.066Z,448
2018-09-22T08:49:35.699Z,428
2018-09-22T08:50:36.237Z,432
2018-09-22T08:51:36.812Z,428
2018-09-22T08:52:37.390Z,424
2018-09-22T08:53:37.980Z,448
2018-09-22T08:54:38.560Z,424
2018-09-22T08:55:39.137Z,416
2018-09-22T08:56:39.716Z,440
2018-09-22T08:57:40.309Z,480
2018-09-22T08:58:40.883Z,520
2018-09-22T08:59:41.462Z,528
2018-09-22T09:00:42.039Z,512
2018-09-22T09:01:42.616Z,496
2018-09-22T09:02:43.194Z,504
2018-09-22T09:03:43.774Z,512
2018-09-22T09:04:44.346Z,516
2018-09-22T09:05:44.977Z,532
2018-09-22T09:06:45.502Z,548
2018-09-22T09:07:46.095Z,604
2018-09-22T09:08:46.671Z,584
2018-09-22T09:09:47.250Z,564
2018-09-22T09:10:47.827Z,544
2018-09-22T09:11:48.405Z,544
2018-09-22T09:12:48.983Z,552
2018-09-22T09:13:49.620Z,552
2018-09-22T09:14:50.138Z,564
2018-09-22T09:15:50.717Z,572
2018-09-22T09:16:51.294Z,600
2018-09-22T09:17:51.871Z,604
2018-09-22T09:18:52.449Z,596
2018-09-22T09:19:53.027Z,600
2018-09-22T09:20:53.604Z,604
2018-09-22T09:21:54.181Z,616
2018-09-22T09:22:54.760Z,604
2018-09-22T09:23:55.337Z,596
2018-09-22T09:24:55.912Z,592
2018-09-22T09:25:56.489Z,584
2018-09-22T09:26:57.068Z,584
2018-09-22T09:27:57.649Z,596
2018-09-22T09:28:58.236Z,600
2018-09-22T09:29:58.817Z,600
2018-09-22T09:30:59.408Z,600
2018-09-22T09:32:00.000Z,616
2018-09-22T09:33:00.577Z,640
2018-09-22T09:34:01.154Z,664
2018-09-22T09:35:01.743Z,688
2018-09-22T09:36:02.339Z,688
2018-09-22T09:37:02.913Z,672
2018-09-22T09:38:03.490Z,656
2018-09-22T09:39:04.068Z,652
2018-09-22T09:40:04.644Z,632
2018-09-22T09:41:05.222Z,612
2018-09-22T09:42:05.812Z,600
2018-09-22T09:43:06.466Z,592
2018-09-22T09:44:06.967Z,580
2018-09-22T09:45:07.544Z,588
2018-09-22T09:46:08.124Z,588
2018-09-22T09:47:08.702Z,592
2018-09-22T09:48:09.277Z,600
2018-09-22T09:49:09.853Z,604
2018-09-22T09:50:10.444Z,612
2018-09-22T09:51:11.023Z,612
2018-09-22T09:52:11.601Z,616
2018-09-22T09:53:12.177Z,616
2018-09-22T09:54:12.758Z,612
2018-09-22T09:55:13.334Z,604
2018-09-22T09:56:13.925Z,600
2018-09-22T09:57:14.503Z,588
2018-09-22T09:58:15.082Z,572
2018-09-22T09:59:15.660Z,560
2018-09-22T10:00:16.236Z,528
2018-09-22T10:01:16.816Z,532
2018-09-22T10:02:17.395Z,504
2018-09-22T10:03:17.975Z,492
2018-09-22T10:04:18.576Z,500
2018-09-22T10:05:19.127Z,520
2018-09-22T10:06:19.706Z,556
2018-09-22T10:07:20.286Z,548
2018-09-22T10:08:20.877Z,604
2018-09-22T10:09:21.455Z,672
2018-09-22T10:10:22.035Z,712
2018-09-22T10:11:22.612Z,712
2018-09-22T10:12:23.191Z,668
2018-09-22T10:13:23.768Z,660
2018-09-22T10:14:24.345Z,596
2018-09-22T10:15:24.925Z,624
2018-09-22T10:16:25.517Z,644
2018-09-22T10:17:26.093Z,620
2018-09-22T10:18:26.687Z,672
2018-09-22T10:19:27.262Z,636
2018-09-22T10:20:27.842Z,728
2018-09-22T10:21:28.419Z,712
2018-09-22T10:22:28.998Z,684
2018-09-22T10:23:29.580Z,616
2018-09-22T10:24:30.155Z,580
2018-09-22T10:25:30.733Z,592
2018-09-22T10:26:31.313Z,672
2018-09-22T10:27:31.891Z,716
2018-09-22T10:28:32.525Z,692
2018-09-22T10:29:33.050Z,684
2018-09-22T10:30:33.628Z,660
2018-09-22T10:31:34.206Z,756
2018-09-22T10:32:34.785Z,692
2018-09-22T10:33:35.363Z,652
2018-09-22T10:34:35.942Z,672
2018-09-22T10:35:36.520Z,644
2018-09-22T10:36:37.100Z,680
2018-09-22T10:37:37.678Z,656
2018-09-22T10:38:38.254Z,640
2018-09-22T10:39:38.860Z,656
2018-09-22T10:40:39.411Z,688
2018-09-22T10:41:39.988Z,704
2018-09-22T10:42:40.568Z,688
2018-09-22T10:43:41.150Z,676
2018-09-22T10:44:41.725Z,660
2018-09-22T10:45:42.313Z,648
2018-09-22T10:46:42.884Z,652
2018-09-22T10:47:43.462Z,668
2018-09-22T10:48:44.042Z,684
2018-09-22T10:49:44.636Z,684
2018-09-22T10:50:45.213Z,688
2018-09-22T10:51:45.791Z,720
2018-09-22T10:52:46.518Z,724
2018-09-22T10:53:46.949Z,696
2018-09-22T10:54:47.542Z,680
2018-09-22T10:55:48.121Z,652
2018-09-22T10:56:48.703Z,652
2018-09-22T10:57:49.293Z,676
2018-09-22T10:58:49.875Z,660
2018-09-22T10:59:50.450Z,652
2018-09-22T11:00:51.029Z,652
2018-09-22T11:01:51.609Z,652
2018-09-22T11:02:52.187Z,672
2018-09-22T11:03:52.764Z,684
2018-09-22T11:04:53.345Z,692
2018-09-22T11:05:53.923Z,716
2018-09-22T11:06:54.502Z,720
2018-09-22T11:07:55.082Z,700
2018-09-22T11:08:55.660Z,676
2018-09-22T11:09:56.237Z,672
2018-09-22T11:10:56.821Z,628
2018-09-22T11:11:57.395Z,616
2018-09-22T11:12:57.974Z,616
2018-09-22T11:13:58.553Z,604
2018-09-22T11:14:59.130Z,588
2018-09-22T11:15:59.708Z,552
2018-09-22T11:17:00.287Z,548
2018-09-22T11:18:00.869Z,568
2018-09-22T11:19:01.445Z,572
2018-09-22T11:20:02.037Z,576
2018-09-22T11:21:02.615Z,576
2018-09-22T11:22:03.192Z,572
2018-09-22T11:23:03.770Z,588
2018-09-22T11:24:04.353Z,608
2018-09-22T11:25:04.932Z,636
2018-09-22T11:26:05.506Z,660
2018-09-22T11:27:06.084Z,692
2018-09-22T11:28:06.661Z,704
2018-09-22T11:29:07.241Z,672
2018-09-22T11:30:07.822Z,640
2018-09-22T11:31:08.409Z,612
2018-09-22T11:32:08.987Z,596
2018-09-22T11:33:09.565Z,592
2018-09-22T11:34:10.148Z,588
2018-09-22T11:35:10.723Z,600
2018-09-22T11:36:11.301Z,616
2018-09-22T11:37:11.879Z,612
2018-09-22T11:38:12.507Z,620
2018-09-22T11:39:13.036Z,660
2018-09-22T11:40:13.614Z,696
2018-09-22T11:41:14.193Z,732
2018-09-22T11:42:14.771Z,708
2018-09-22T11:43:15.350Z,700
2018-09-22T11:44:15.940Z,700
2018-09-22T11:45:16.530Z,696
2018-09-22T11:46:17.136Z,688
2018-09-22T11:47:17.888Z,660
2018-09-22T11:48:18.466Z,624
2018-09-22T11:49:19.043Z,608
2018-09-22T11:50:19.623Z,560
2018-09-22T11:51:20.202Z,516
2018-09-22T11:52:20.830Z,488
2018-09-22T11:53:21.409Z,448
2018-09-22T11:54:21.988Z,472
2018-09-22T11:55:22.566Z,508
2018-09-22T11:56:23.152Z,488
2018-09-22T11:57:23.727Z,464
2018-09-22T11:58:24.302Z,472
2018-09-22T11:59:24.882Z,496
2018-09-22T12:00:25.461Z,544
2018-09-22T12:01:26.054Z,576
2018-09-22T12:02:26.634Z,564
2018-09-22T12:03:27.212Z,612
2018-09-22T12:04:27.792Z,628
2018-09-22T12:05:28.371Z,620
2018-09-22T12:06:29.033Z,604
2018-09-22T12:07:29.529Z,596
2018-09-22T12:08:30.107Z,644
2018-09-22T12:09:30.686Z,664
2018-09-22T12:10:31.265Z,632
2018-09-22T12:11:31.846Z,600
2018-09-22T12:12:32.423Z,596
2018-09-22T12:13:33.000Z,596
2018-09-22T12:14:33.582Z,592
2018-09-22T12:15:34.163Z,592
2018-09-22T12:16:34.738Z,576
2018-09-22T12:17:35.331Z,556
2018-09-22T12:18:35.912Z,564
2018-09-22T12:19:36.490Z,560
2018-09-22T12:20:37.069Z,600
2018-09-22T12:21:37.660Z,652
2018-09-22T12:22:38.252Z,660
2018-09-22T12:23:38.832Z,644
2018-09-22T12:24:39.425Z,628
2018-09-22T12:25:40.006Z,608
2018-09-22T12:26:40.595Z,592
2018-09-22T12:27:41.174Z,576
2018-09-22T12:28:41.754Z,552
2018-09-22T12:29:42.347Z,528
2018-09-22T12:30:42.940Z,508
2018-09-22T12:31:43.568Z,472
2018-09-22T12:32:44.111Z,464
2018-09-22T12:33:44.692Z,460
2018-09-22T12:34:45.270Z,472
2018-09-22T12:35:45.850Z,480
2018-09-22T12:36:46.448Z,464
2018-09-22T12:37:47.024Z,476
2018-09-22T12:38:47.600Z,488
2018-09-22T12:39:48.182Z,496
2018-09-22T12:40:48.758Z,496
2018-09-22T12:41:49.350Z,496
2018-09-22T12:42:49.944Z,500
2018-09-22T12:43:50.522Z,504
2018-09-22T12:44:51.103Z,504
2018-09-22T12:45:51.681Z,496
2018-09-22T12:46:52.260Z,480
2018-09-22T12:47:52.838Z,468
2018-09-22T12:48:53.418Z,476
2018-09-22T12:49:53.996Z,472
2018-09-22T12:50:54.576Z,460
2018-09-22T12:51:55.154Z,452
2018-09-22T12:52:55.733Z,440
2018-09-22T12:53:56.312Z,456
2018-09-22T12:54:56.891Z,456
2018-09-22T12:55:57.470Z,464
2018-09-22T12:56:58.051Z,472
2018-09-22T12:57:58.628Z,480
2018-09-22T12:58:59.209Z,492
2018-09-22T12:59:59.788Z,496
2018-09-22T13:01:00.366Z,488
2018-09-22T13:02:00.945Z,492
2018-09-22T13:03:01.529Z,492
2018-09-22T13:04:02.115Z,488
2018-09-22T13:05:02.693Z,464
2018-09-22T13:06:03.272Z,436
2018-09-22T13:07:03.866Z,420
2018-09-22T13:08:04.458Z,396
2018-09-22T13:09:05.036Z,372
2018-09-22T13:10:05.614Z,360
2018-09-22T13:11:06.195Z,356
2018-09-22T13:12:06.773Z,332
2018-09-22T13:13:07.352Z,300
2018-09-22T13:14:07.931Z,288
2018-09-22T13:15:08.509Z,280
2018-09-22T13:16:09.090Z,288
2018-09-22T13:17:09.667Z,296
2018-09-22T13:18:10.244Z,304
2018-09-22T13:19:10.824Z,324
2018-09-22T13:20:11.472Z,348
2018-09-22T13:21:11.980Z,380
2018-09-22T13:22:12.560Z,400
2018-09-22T13:23:13.140Z,408
2018-09-22T13:24:13.736Z,408
2018-09-22T13:25:14.322Z,408
2018-09-22T13:26:14.900Z,420
2018-09-22T13:27:15.479Z,428
2018-09-22T13:28:16.089Z,452
2018-09-22T13:29:16.650Z,468
2018-09-22T13:30:17.227Z,472
2018-09-22T13:31:17.807Z,472
2018-09-22T13:32:18.385Z,468
2018-09-22T13:33:18.965Z,456
2018-09-22T13:34:19.546Z,440
2018-09-22T13:35:20.128Z,432
2018-09-22T13:36:20.703Z,424
2018-09-22T13:37:21.404Z,424
2018-09-22T13:38:21.861Z,436
2018-09-22T13:39:22.440Z,464
2018-09-22T13:40:23.019Z,488
2018-09-22T13:41:23.597Z,504
2018-09-22T13:42:24.176Z,508
2018-09-22T13:43:24.753Z,492
2018-09-22T13:44:25.331Z,488
2018-09-22T13:45:25.910Z,488
2018-09-22T13:46:26.505Z,480
2018-09-22T13:47:27.082Z,448
2018-09-22T13:48:27.665Z,412
2018-09-22T13:49:28.240Z,388
2018-09-22T13:50:28.817Z,380
2018-09-22T13:51:29.398Z,368
2018-09-22T13:52:29.977Z,364
2018-09-22T13:53:30.554Z,368
2018-09-22T13:54:31.133Z,368
2018-09-22T13:55:31.727Z,360
2018-09-22T13:56:32.320Z,348
2018-09-22T13:57:32.905Z,348
2018-09-22T13:58:33.483Z,336
2018-09-22T13:59:34.063Z,304
2018-09-22T14:00:34.644Z,284
2018-09-22T14:01:35.238Z,272
2018-09-22T14:02:35.815Z,292
2018-09-22T14:03:36.401Z,316
2018-09-22T14:04:36.973Z,328
2018-09-22T14:05:37.567Z,332
2018-09-22T14:06:38.161Z,340
2018-09-22T14:07:38.739Z,340
2018-09-22T14:08:39.320Z,328
2018-09-22T14:09:39.910Z,304
2018-09-22T14:10:40.491Z,276
2018-09-22T14:11:41.067Z,252
2018-09-22T14:12:41.647Z,228
2018-09-22T14:13:42.238Z,212
2018-09-22T14:14:42.816Z,204
2018-09-22T14:15:43.395Z,184
2018-09-22T14:16:43.972Z,172
2018-09-22T14:17:44.551Z,160